Observation data for Graham on 02/14/2020      Previous  Date  Next       Current Mesonet Observations  Soil Data  Daily Summary Page  Observations in Plain Language
KGHS 140600Z 10010KT M02/M04 A3029 RMK A01 T10211036  RH  090%=      5-min Rain = 0
KGHS 140605Z 10010KT M02/M04 A3029 RMK A01 T10211036  RH  090%=      5-min Rain = 0
KGHS 140610Z 10010KT M02/M04 A3029 RMK A01 T10221036  RH  090%=      5-min Rain = 0
KGHS 140615Z 10009KT M02/M04 A3029 RMK A01 T10221036  RH  090%=      5-min Rain = 0
KGHS 140620Z 10010KT M02/M04 A3029 RMK A01 T10231037  RH  091%=      5-min Rain = 0
KGHS 140625Z 10008KT M02/M04 A3029 RMK A01 T10231037  RH  091%=      5-min Rain = 0
KGHS 140630Z 11009KT M02/M04 A3029 RMK A01 T10241037  RH  091%=      5-min Rain = 0
KGHS 140635Z 10009KT M02/M04 A3029 RMK A01 T10241037  RH  091%=      5-min Rain = 0
KGHS 140640Z 10008G13KT M03/M04 A3029 RMK A01 T10251038  RH  091%=      5-min Rain = 0
KGHS 140645Z 10011KT M03/M04 A3029 RMK A01 T10261039  RH  091%=      5-min Rain = 0
KGHS 140650Z 10010KT M03/M04 A3029 RMK A01 T10261039  RH  091%=      5-min Rain = 0
KGHS 140655Z 10011KT M03/M04 A3029 RMK A01 T10261040  RH  091%=      5-min Rain = 0
KGHS 140700Z 10012KT M03/M04 A3029 RMK A01 T10261041  RH  090%=      5-min Rain = 0
KGHS 140705Z 10011KT M03/M04 A3029 RMK A01 T10261041  RH  090%=      5-min Rain = 0
KGHS 140710Z 10010KT M03/M04 A3029 RMK A01 T10271042  RH  090%=      5-min Rain = 0
KGHS 140715Z 09011KT M03/M04 A3029 RMK A01 T10271042  RH  090%=      5-min Rain = 0
KGHS 140720Z 09010KT M03/M04 A3029 RMK A01 T10281042  RH  090%=      5-min Rain = 0
KGHS 140725Z 09010KT M03/M04 A3029 RMK A01 T10281042  RH  090%=      5-min Rain = 0
KGHS 140730Z 09009KT M03/M04 A3029 RMK A01 T10291043  RH  090%=      5-min Rain = 0
KGHS 140735Z 09010KT M03/M04 A3029 RMK A01 T10291043  RH  091%=      5-min Rain = 0
KGHS 140740Z 09009KT M03/M04 A303 RMK A01 T10291043  RH  091%=      5-min Rain = 0
KGHS 140745Z 09009KT M03/M04 A303 RMK A01 T10301043  RH  091%=      5-min Rain = 0
KGHS 140750Z 09009KT M03/M04 A303 RMK A01 T10311043  RH  092%=      5-min Rain = 0
KGHS 140755Z 09010KT M03/M04 A303 RMK A01 T10311044  RH  092%=      5-min Rain = 0
KGHS 140800Z 09010KT M03/M04 A303 RMK A01 T10321044  RH  092%=      5-min Rain = 0
KGHS 140805Z 09010KT M03/M04 A303 RMK A01 T10321044  RH  092%=      5-min Rain = 0
KGHS 140810Z 09009KT M03/M04 A303 RMK A01 T10321044  RH  092%=      5-min Rain = 0
KGHS 140815Z 09009KT M03/M04 A303 RMK A01 T10321044  RH  092%=      5-min Rain = 0
KGHS 140820Z 09008KT M03/M05 A303 RMK A01 T10321045  RH  092%=      5-min Rain = 0
KGHS 140825Z 09008KT M03/M05 A303 RMK A01 T10331045  RH  092%=      5-min Rain = 0
KGHS 140830Z 09008KT M03/M05 A3031 RMK A01 T10331045  RH  092%=      5-min Rain = 0
KGHS 140835Z 10009KT M03/M05 A303 RMK A01 T10331045  RH  092%=      5-min Rain = 0
KGHS 140840Z 10009KT M03/M05 A303 RMK A01 T10331045  RH  092%=      5-min Rain = 0
KGHS 140845Z 10008KT M03/M05 A303 RMK A01 T10331045  RH  092%=      5-min Rain = 0
KGHS 140850Z 10007KT M03/M05 A303 RMK A01 T10341045  RH  092%=      5-min Rain = 0
KGHS 140855Z 10009KT M03/M05 A303 RMK A01 T10341046  RH  092%=      5-min Rain = 0
KGHS 140900Z 10009KT M04/M05 A303 RMK A01 T10351046  RH  092%=      5-min Rain = 0
KGHS 140905Z 10007KT M04/M05 A303 RMK A01 T10361047  RH  092%=      5-min Rain = 0
KGHS 140910Z 10008KT M04/M05 A303 RMK A01 T10361048  RH  092%=      5-min Rain = 0
KGHS 140915Z 09007KT M04/M05 A303 RMK A01 T10371048  RH  092%=      5-min Rain = 0
KGHS 140920Z 09008KT M04/M05 A303 RMK A01 T10381049  RH  092%=      5-min Rain = 0
KGHS 140925Z 09007KT M04/M05 A303 RMK A01 T10381049  RH  092%=      5-min Rain = 0
KGHS 140930Z 08007KT M04/M05 A303 RMK A01 T10391050  RH  092%=      5-min Rain = 0
KGHS 140935Z 09008KT M04/M05 A303 RMK A01 T10391050  RH  092%=      5-min Rain = 0
KGHS 140940Z 08008KT M04/M05 A303 RMK A01 T10401051  RH  092%=      5-min Rain = 0
KGHS 140945Z 08007KT M04/M05 A303 RMK A01 T10401051  RH  092%=      5-min Rain = 0
KGHS 140950Z 08007KT M04/M05 A3031 RMK A01 T10401052  RH  092%=      5-min Rain = 0
KGHS 140955Z 08006KT M04/M05 A3031 RMK A01 T10401052  RH  092%=      5-min Rain = 0
KGHS 141000Z 08006KT M04/M05 A3031 RMK A01 T10411052  RH  092%=      5-min Rain = 0
KGHS 141005Z 07006KT M04/M05 A3031 RMK A01 T10411052  RH  092%=      5-min Rain = 0
KGHS 141010Z 08006KT M04/M05 A303 RMK A01 T10421053  RH  092%=      5-min Rain = 0
KGHS 141015Z 08007KT M04/M05 A303 RMK A01 T10421053  RH  092%=      5-min Rain = 0
KGHS 141020Z 08006KT M04/M05 A303 RMK A01 T10421053  RH  092%=      5-min Rain = 0
KGHS 141025Z 07006KT M04/M05 A303 RMK A01 T10411053  RH  092%=      5-min Rain = 0
KGHS 141030Z 07006KT M04/M05 A303 RMK A01 T10411053  RH  092%=      5-min Rain = 0
KGHS 141035Z 07006KT M04/M05 A303 RMK A01 T10411053  RH  091%=      5-min Rain = 0
KGHS 141040Z 08006KT M04/M05 A303 RMK A01 T10401053  RH  091%=      5-min Rain = 0
KGHS 141045Z 07005KT M04/M05 A303 RMK A01 T10391052  RH  091%=      5-min Rain = 0
KGHS 141050Z 07005KT M04/M05 A303 RMK A01 T10391052  RH  091%=      5-min Rain = 0
KGHS 141055Z 06005KT M04/M05 A303 RMK A01 T10391052  RH  091%=      5-min Rain = 0
KGHS 141100Z 06006KT M04/M05 A303 RMK A01 T10391052  RH  091%=      5-min Rain = 0
KGHS 141105Z 06006KT M04/M05 A303 RMK A01 T10411054  RH  091%=      5-min Rain = 0
KGHS 141110Z 06006KT M04/M06 A3031 RMK A01 T10421055  RH  091%=      5-min Rain = 0
KGHS 141115Z 06006KT M04/M06 A3031 RMK A01 T10421055  RH  091%=      5-min Rain = 0
KGHS 141120Z 07007KT M04/M06 A3031 RMK A01 T10431056  RH  091%=      5-min Rain = 0
KGHS 141125Z 06006KT M04/M06 A3031 RMK A01 T10431056  RH  091%=      5-min Rain = 0
KGHS 141130Z 06006KT M04/M06 A3031 RMK A01 T10431056  RH  091%=      5-min Rain = 0
KGHS 141135Z 06006KT M04/M06 A3031 RMK A01 T10431056  RH  091%=      5-min Rain = 0
KGHS 141140Z 07006KT M04/M06 A3031 RMK A01 T10431057  RH  091%=      5-min Rain = 0
KGHS 141145Z 08004KT M04/M06 A3031 RMK A01 T10431056  RH  091%=      5-min Rain = 0
KGHS 141150Z 08004KT M04/M06 A3031 RMK A01 T10421056  RH  090%=      5-min Rain = 0
KGHS 141155Z 08004KT M04/M06 A3031 RMK A01 T10421056  RH  090%=      5-min Rain = 0
KGHS 141200Z 09004KT M04/M06 A3031 RMK A01 T10421056  RH  090%=      5-min Rain = 0
KGHS 141205Z 08005KT M04/M06 A3031 RMK A01 T10421056  RH  090%=      5-min Rain = 0
KGHS 141210Z 09003KT M04/M06 A3031 RMK A01 T10421056  RH  090%=      5-min Rain = 0
KGHS 141215Z 10004KT M04/M06 A3032 RMK A01 T10421056  RH  090%=      5-min Rain = 0
KGHS 141220Z 10003KT M04/M06 A3032 RMK A01 T10421056  RH  090%=      5-min Rain = 0
KGHS 141225Z 08003KT M04/M06 A3032 RMK A01 T10411055  RH  090%=      5-min Rain = 0
KGHS 141230Z 08004KT M04/M06 A3032 RMK A01 T10411055  RH  090%=      5-min Rain = 0
KGHS 141235Z 08004KT M04/M06 A3032 RMK A01 T10411055  RH  090%=      5-min Rain = 0
KGHS 141240Z 08004KT M04/M06 A3032 RMK A01 T10411055  RH  090%=      5-min Rain = 0
KGHS 141245Z 11003KT M04/M06 A3032 RMK A01 T10411055  RH  091%=      5-min Rain = 0
KGHS 141250Z 12004KT M04/M06 A3032 RMK A01 T10411055  RH  090%=      5-min Rain = 0
KGHS 141255Z 12004KT M04/M06 A3032 RMK A01 T10411055  RH  090%=      5-min Rain = 0
KGHS 141300Z 12004KT M04/M06 A3032 RMK A01 T10411055  RH  090%=      5-min Rain = 0
KGHS 141305Z 12003KT M04/M06 A3032 RMK A01 T10411055  RH  090%=      5-min Rain = 0
KGHS 141310Z 14004KT M04/M06 A3032 RMK A01 T10401055  RH  090%=      5-min Rain = 0
KGHS 141315Z 14004KT M04/M06 A3032 RMK A01 T10411055  RH  090%=      5-min Rain = 0
KGHS 141320Z 13004KT M04/M06 A3032 RMK A01 T10411056  RH  090%=      5-min Rain = 0
KGHS 141325Z 13003KT M04/M06 A3032 RMK A01 T10411056  RH  090%=      5-min Rain = 0
KGHS 141330Z 13003KT M04/M06 A3033 RMK A01 T10411055  RH  090%=      5-min Rain = 0
KGHS 141335Z 15003KT M04/M06 A3033 RMK A01 T10411055  RH  091%=      5-min Rain = 0
KGHS 141340Z 12002KT M04/M05 A3033 RMK A01 T10411054  RH  091%=      5-min Rain = 0
KGHS 141345Z 13002KT M04/M05 A3033 RMK A01 T10411054  RH  091%=      5-min Rain = 0
KGHS 141350Z 12003KT M04/M05 A3033 RMK A01 T10411054  RH  091%=      5-min Rain = 0
KGHS 141355Z 10004KT M04/M05 A3033 RMK A01 T10401054  RH  091%=      5-min Rain = 0
KGHS 141400Z 10003KT M04/M05 A3033 RMK A01 T10401054  RH  091%=      5-min Rain = 0
KGHS 141405Z 08003KT M04/M05 A3033 RMK A01 T10401054  RH  091%=      5-min Rain = 0
KGHS 141410Z 08003KT M04/M05 A3033 RMK A01 T10401054  RH  090%=      5-min Rain = 0
KGHS 141415Z 12004KT M04/M05 A3033 RMK A01 T10401054  RH  091%=      5-min Rain = 0
KGHS 141420Z 12004KT M04/M05 A3033 RMK A01 T10401053  RH  091%=      5-min Rain = 0
KGHS 141425Z 11004KT M04/M05 A3033 RMK A01 T10401054  RH  090%=      5-min Rain = 0
KGHS 141430Z 10003KT M04/M05 A3033 RMK A01 T10391053  RH  091%=      5-min Rain = 0
KGHS 141435Z 10003KT M04/M05 A3033 RMK A01 T10391053  RH  090%=      5-min Rain = 0
KGHS 141440Z 10003KT M04/M05 A3033 RMK A01 T10391053  RH  090%=      5-min Rain = 0
KGHS 141445Z 10002KT M04/M05 A3033 RMK A01 T10391053  RH  090%=      5-min Rain = 0
KGHS 141450Z 09002KT M04/M05 A3034 RMK A01 T10381052  RH  090%=      5-min Rain = 0
KGHS 141455Z 11002KT M04/M05 A3034 RMK A01 T10381052  RH  090%=      5-min Rain = 0
KGHS 141500Z 12003KT M04/M05 A3034 RMK A01 T10371050  RH  091%=      5-min Rain = 0
KGHS 141505Z 16004KT M04/M05 A3034 RMK A01 T10361049  RH  091%=      5-min Rain = 0
KGHS 141510Z 13004KT M04/M05 A3034 RMK A01 T10351049  RH  090%=      5-min Rain = 0
KGHS 141515Z 10004KT M04/M05 A3034 RMK A01 T10351050  RH  090%=      5-min Rain = 0
KGHS 141520Z 09004KT M04/M05 A3034 RMK A01 T10351049  RH  090%=      5-min Rain = 0
KGHS 141525Z 10004KT M04/M05 A3034 RMK A01 T10351049  RH  090%=      5-min Rain = 0
KGHS 141530Z 12003KT M03/M05 A3034 RMK A01 T10341047  RH  091%=      5-min Rain = 0
KGHS 141535Z 09004KT M03/M05 A3034 RMK A01 T10331047  RH  090%=      5-min Rain = 0
KGHS 141540Z 10004KT M03/M05 A3034 RMK A01 T10331047  RH  090%=      5-min Rain = 0
KGHS 141545Z 11004KT M03/M05 A3034 RMK A01 T10321046  RH  090%=      5-min Rain = 0
KGHS 141550Z 11003KT M03/M04 A3034 RMK A01 T10311044  RH  091%=      5-min Rain = 0
KGHS 141555Z 12003KT M03/M04 A3034 RMK A01 T10301043  RH  091%=      5-min Rain = 0
KGHS 141600Z 12004KT M03/M04 A3034 RMK A01 T10291043  RH  091%=      5-min Rain = 0
KGHS 141605Z 12004KT M03/M04 A3034 RMK A01 T10291042  RH  091%=      5-min Rain = 0
KGHS 141610Z 13005KT M03/M04 A3034 RMK A01 T10281042  RH  091%=      5-min Rain = 0
KGHS 141615Z 13005KT M03/M04 A3033 RMK A01 T10291041  RH  091%=      5-min Rain = 0
KGHS 141620Z 13005KT M03/M04 A3033 RMK A01 T10261039  RH  092%=      5-min Rain = 0
KGHS 141625Z 14005KT M03/M04 A3033 RMK A01 T10251038  RH  091%=      5-min Rain = 0
KGHS 141630Z 14006KT M02/M04 A3033 RMK A01 T10241039  RH  090%=      5-min Rain = 0
KGHS 141635Z 10005KT M03/M04 A3033 RMK A01 T10251040  RH  090%=      5-min Rain = 0
KGHS 141640Z 12005KT M03/M04 A3033 RMK A01 T10271042  RH  090%=      5-min Rain = 0
KGHS 141645Z 12005KT M03/M04 A3033 RMK A01 T10261041  RH  090%=      5-min Rain = 0
KGHS 141650Z 13005KT M03/M04 A3033 RMK A01 T10251040  RH  090%=      5-min Rain = 0
KGHS 141655Z 13006KT M03/M04 A3033 RMK A01 T10251040  RH  090%=      5-min Rain = 0
KGHS 141700Z 13007KT M03/M04 A3033 RMK A01 T10251040  RH  090%=      5-min Rain = 0
KGHS 141705Z 11006KT M03/M04 A3033 RMK A01 T10251040  RH  090%=      5-min Rain = 0
KGHS 141710Z 13006KT M02/M04 A3033 RMK A01 T10241039  RH  090%=      5-min Rain = 0
KGHS 141715Z 14007KT M02/M04 A3032 RMK A01 T10221037  RH  090%=      5-min Rain = 0
KGHS 141720Z 14007KT M02/M04 A3032 RMK A01 T10211037  RH  090%=      5-min Rain = 0
KGHS 141725Z 14008KT M02/M04 A3032 RMK A01 T10201036  RH  089%=      5-min Rain = 0
KGHS 141730Z 13007KT M02/M04 A3032 RMK A01 T10211037  RH  089%=      5-min Rain = 0
KGHS 141735Z 14007KT M02/M04 A3032 RMK A01 T10201036  RH  090%=      5-min Rain = 0
KGHS 141740Z 13009KT M02/M04 A3032 RMK A01 T10191036  RH  089%=      5-min Rain = 0
KGHS 141745Z 14006KT M02/M04 A3031 RMK A01 T10191036  RH  089%=      5-min Rain = 0
KGHS 141750Z 12008KT M02/M04 A3031 RMK A01 T10171035  RH  088%=      5-min Rain = 0
KGHS 141755Z 14007KT M02/M03 A3031 RMK A01 T10171034  RH  089%=      5-min Rain = 0
KGHS 141800Z 14006KT M02/M03 A3031 RMK A01 T10161034  RH  088%=      5-min Rain = 0
KGHS 141805Z 14006KT M02/M03 A3031 RMK A01 T10151033  RH  088%=      5-min Rain = 0
KGHS 141810Z 14006KT M01/M03 A3031 RMK A01 T10141032  RH  088%=      5-min Rain = 0
KGHS 141815Z 13007KT M01/M03 A3031 RMK A01 T10131032  RH  088%=      5-min Rain = 0
KGHS 141820Z 15005KT M01/M03 A3031 RMK A01 T10121030  RH  088%=      5-min Rain = 0
KGHS 141825Z 14005KT M01/M03 A303 RMK A01 T10111029  RH  088%=      5-min Rain = 0
KGHS 141830Z 14006KT M01/M03 A303 RMK A01 T10091028  RH  088%=      5-min Rain = 0
KGHS 141835Z 14008KT M01/M02 A303 RMK A01 T10061023  RH  089%=      5-min Rain = 0
KGHS 141840Z 16008KT M00/M02 A303 RMK A01 T10031020  RH  089%=      5-min Rain = 0
KGHS 141845Z 16009KT M00/M02 A303 RMK A01 T10011019  RH  089%=      5-min Rain = 0
KGHS 141850Z 16010KT M00/M02 A3029 RMK A01 T10011019  RH  088%=      5-min Rain = 0
KGHS 141855Z 17010KT M00/M02 A3029 RMK A01 T10011018  RH  089%=      5-min Rain = 0
KGHS 141900Z 17010KT 00/02 A3029 RMK A01 T00-00-18  RH  089%=      5-min Rain = 0
KGHS 141905Z 16008KT 00/02 A3028 RMK A01 T00000-17  RH  089%=      5-min Rain = 0
KGHS 141910Z 16010KT 00/M02 A3028 RMK A01 T00011017  RH  089%=      5-min Rain = 0
KGHS 141915Z 16010KT 00/M02 A3028 RMK A01 T00011017  RH  088%=      5-min Rain = 0
KGHS 141920Z 18011KT 00/M02 A3028 RMK A01 T00011017  RH  088%=      5-min Rain = 0
KGHS 141925Z 17011G16KT 00/M02 A3027 RMK A01 T00011017  RH  089%=      5-min Rain = 0
KGHS 141930Z 16010G15KT 00/M02 A3027 RMK A01 T00021016  RH  089%=      5-min Rain = 0
KGHS 141935Z 17009KT 00/M02 A3027 RMK A01 T00031015  RH  089%=      5-min Rain = 0
KGHS 141940Z 16010KT 00/M02 A3026 RMK A01 T00031015  RH  088%=      5-min Rain = 0
KGHS 141945Z 15011KT 00/M02 A3026 RMK A01 T00031015  RH  088%=      5-min Rain = 0
KGHS 141950Z 16010KT 00/M02 A3026 RMK A01 T00031015  RH  088%=      5-min Rain = 0
KGHS 141955Z 17011KT 00/M02 A3026 RMK A01 T00031015  RH  088%=      5-min Rain = 0
KGHS 142000Z 17009KT 00/M02 A3025 RMK A01 T00041015  RH  088%=      5-min Rain = 0
KGHS 142005Z 17010KT 01/M01 A3025 RMK A01 T00061013  RH  088%=      5-min Rain = 0
KGHS 142010Z 17009KT 01/M01 A3025 RMK A01 T00071013  RH  087%=      5-min Rain = 0
KGHS 142015Z 17009KT 01/M01 A3024 RMK A01 T00071013  RH  087%=      5-min Rain = 0
KGHS 142020Z 19008KT 01/M01 A3024 RMK A01 T00081013  RH  087%=      5-min Rain = 0
KGHS 142025Z 18009KT 01/M01 A3024 RMK A01 T00081013  RH  087%=      5-min Rain = 0
KGHS 142030Z 17009KT 01/M01 A3024 RMK A01 T00081013  RH  087%=      5-min Rain = 0
KGHS 142035Z 18009KT 01/M01 A3024 RMK A01 T00091012  RH  087%=      5-min Rain = 0
KGHS 142040Z 17009KT 01/M01 A3023 RMK A01 T00101011  RH  087%=      5-min Rain = 0
KGHS 142045Z 19010KT 01/M01 A3023 RMK A01 T00111011  RH  087%=      5-min Rain = 0
KGHS 142050Z 17010KT 01/M01 A3023 RMK A01 T00121009  RH  087%=      5-min Rain = 0
KGHS 142055Z 18009G14KT 01/M01 A3023 RMK A01 T00121009  RH  087%=      5-min Rain = 0
KGHS 142100Z 18008KT 01/M01 A3023 RMK A01 T00131008  RH  087%=      5-min Rain = 0
KGHS 142105Z 17011KT 01/M01 A3023 RMK A01 T00131009  RH  087%=      5-min Rain = 0
KGHS 142110Z 17008KT 01/M01 A3023 RMK A01 T00131008  RH  087%=      5-min Rain = 0
KGHS 142115Z 17010G16KT 01/M01 A3022 RMK A01 T00141007  RH  087%=      5-min Rain = 0
KGHS 142120Z 18010KT 01/M01 A3022 RMK A01 T00131008  RH  087%=      5-min Rain = 0
KGHS 142125Z 17012KT 01/M01 A3022 RMK A01 T00141006  RH  088%=      5-min Rain = 0
KGHS 142130Z 17010KT 01/M01 A3022 RMK A01 T00141005  RH  088%=      5-min Rain = 0
KGHS 142135Z 16010KT 02/M01 A3022 RMK A01 T00151005  RH  088%=      5-min Rain = 0
KGHS 142140Z 17010KT 02/M01 A3021 RMK A01 T00151005  RH  087%=      5-min Rain = 0
KGHS 142145Z 18011KT 02/M00 A3021 RMK A01 T00161004  RH  087%=      5-min Rain = 0
KGHS 142150Z 17010KT 02/M00 A302 RMK A01 T00171004  RH  087%=      5-min Rain = 0
KGHS 142155Z 17009KT 02/M00 A302 RMK A01 T00191003  RH  087%=      5-min Rain = 0
KGHS 142200Z 16009KT 02/M00 A302 RMK A01 T00201002  RH  086%=      5-min Rain = 0
KGHS 142205Z 17007KT 02/M00 A302 RMK A01 T00221002  RH  085%=      5-min Rain = 0
KGHS 142210Z 17006KT 02/M00 A302 RMK A01 T00221002  RH  085%=      5-min Rain = 0
KGHS 142215Z 17008KT 02/00 A302 RMK A01 T002400-0  RH  085%=      5-min Rain = 0
KGHS 142220Z 18008KT 03/00 A302 RMK A01 T00250000  RH  084%=      5-min Rain = 0
KGHS 142225Z 18008KT 03/00 A3019 RMK A01 T00280001  RH  084%=      5-min Rain = 0
KGHS 142230Z 18007KT 03/00 A3019 RMK A01 T00290002  RH  083%=      5-min Rain = 0
KGHS 142235Z 18008KT 03/00 A3019 RMK A01 T00290001  RH  083%=      5-min Rain = 0
KGHS 142240Z 16008KT 03/00 A3019 RMK A01 T00310004  RH  083%=      5-min Rain = 0
KGHS 142245Z 17009KT 04/01 A3018 RMK A01 T00360005  RH  081%=      5-min Rain = 0
KGHS 142250Z 17008KT 04/01 A3018 RMK A01 T00380005  RH  080%=      5-min Rain = 0
KGHS 142255Z 17008KT 04/01 A3018 RMK A01 T00400006  RH  079%=      5-min Rain = 0
KGHS 142300Z 17008KT 04/01 A3018 RMK A01 T00410006  RH  079%=      5-min Rain = 0
KGHS 142305Z 17009KT 04/01 A3018 RMK A01 T00430006  RH  078%=      5-min Rain = 0
KGHS 142310Z 13007KT 04/01 A3018 RMK A01 T00420005  RH  078%=      5-min Rain = 0
KGHS 142315Z 14007KT 04/01 A3017 RMK A01 T00420006  RH  078%=      5-min Rain = 0
KGHS 142320Z 16007KT 05/01 A3017 RMK A01 T00450006  RH  077%=      5-min Rain = 0
KGHS 142325Z 14006KT 05/01 A3017 RMK A01 T00450007  RH  077%=      5-min Rain = 0
KGHS 142330Z 15006KT 05/01 A3017 RMK A01 T00460008  RH  077%=      5-min Rain = 0
KGHS 142335Z 15005KT 05/01 A3017 RMK A01 T00480009  RH  077%=      5-min Rain = 0
KGHS 142340Z 16007KT 05/01 A3017 RMK A01 T00490009  RH  076%=      5-min Rain = 0
KGHS 142345Z 16006KT 05/01 A3017 RMK A01 T00490009  RH  076%=      5-min Rain = 0
KGHS 142350Z 16006KT 05/01 A3017 RMK A01 T00490009  RH  076%=      5-min Rain = 0
KGHS 142355Z 16006KT 05/01 A3017 RMK A01 T00500009  RH  076%=      5-min Rain = 0
KGHS 150000Z 16006KT 05/01 A3017 RMK A01 T00500010  RH  076%=      5-min Rain = 0
KGHS 150005Z 16006KT 05/01 A3017 RMK A01 T00500010  RH  076%=      5-min Rain = 0
KGHS 150010Z 16005KT 05/01 A3017 RMK A01 T00500010  RH  076%=      5-min Rain = 0
KGHS 150015Z 16005KT 05/01 A3017 RMK A01 T00490009  RH  077%=      5-min Rain = 0
KGHS 150020Z 16005KT 05/01 A3017 RMK A01 T00480009  RH  077%=      5-min Rain = 0
KGHS 150025Z 15005KT 05/01 A3016 RMK A01 T00470009  RH  078%=      5-min Rain = 0
KGHS 150030Z 15005KT 05/01 A3016 RMK A01 T00460009  RH  078%=      5-min Rain = 0
KGHS 150035Z 15005KT 05/01 A3016 RMK A01 T00450009  RH  079%=      5-min Rain = 0
KGHS 150040Z 14005KT 04/01 A3016 RMK A01 T00440009  RH  079%=      5-min Rain = 0
KGHS 150045Z 14004KT 04/01 A3016 RMK A01 T00440009  RH  079%=      5-min Rain = 0
KGHS 150050Z 15004KT 04/01 A3016 RMK A01 T00430009  RH  079%=      5-min Rain = 0
KGHS 150055Z 14004KT 04/01 A3016 RMK A01 T00430009  RH  080%=      5-min Rain = 0
KGHS 150100Z 13004KT 04/01 A3016 RMK A01 T00440009  RH  079%=      5-min Rain = 0
KGHS 150105Z 12005KT 04/01 A3016 RMK A01 T00440009  RH  079%=      5-min Rain = 0
KGHS 150110Z 13005KT 04/01 A3016 RMK A01 T00440009  RH  079%=      5-min Rain = 0
KGHS 150115Z 13006KT 04/01 A3016 RMK A01 T00430009  RH  079%=      5-min Rain = 0
KGHS 150120Z 13006KT 04/01 A3016 RMK A01 T00430009  RH  080%=      5-min Rain = 0
KGHS 150125Z 14006KT 04/01 A3016 RMK A01 T00420009  RH  080%=      5-min Rain = 0
KGHS 150130Z 14005KT 04/01 A3016 RMK A01 T00420008  RH  080%=      5-min Rain = 0
KGHS 150135Z 14006KT 04/01 A3015 RMK A01 T00410008  RH  080%=      5-min Rain = 0
KGHS 150140Z 12006KT 04/01 A3015 RMK A01 T00400008  RH  081%=      5-min Rain = 0
KGHS 150145Z 13007KT 04/01 A3015 RMK A01 T00390008  RH  081%=      5-min Rain = 0
KGHS 150150Z 13007KT 04/01 A3015 RMK A01 T00380008  RH  082%=      5-min Rain = 0
KGHS 150155Z 13007KT 04/01 A3015 RMK A01 T00380008  RH  082%=      5-min Rain = 0
KGHS 150200Z 13007KT 04/01 A3015 RMK A01 T00370007  RH  082%=      5-min Rain = 0
KGHS 150205Z 13007KT 04/01 A3015 RMK A01 T00360008  RH  083%=      5-min Rain = 0
KGHS 150210Z 13007KT 04/01 A3015 RMK A01 T00360007  RH  082%=      5-min Rain = 0
KGHS 150215Z 13006KT 03/01 A3015 RMK A01 T00340006  RH  083%=      5-min Rain = 0
KGHS 150220Z 13005KT 03/01 A3015 RMK A01 T00320005  RH  084%=      5-min Rain = 0
KGHS 150225Z 14004KT 03/01 A3015 RMK A01 T00300005  RH  084%=      5-min Rain = 0
KGHS 150230Z 14003KT 03/01 A3015 RMK A01 T00300006  RH  085%=      5-min Rain = 0
KGHS 150235Z 13003KT 03/01 A3015 RMK A01 T00300007  RH  086%=      5-min Rain = 0
KGHS 150240Z 14004KT 03/01 A3016 RMK A01 T00320009  RH  086%=      5-min Rain = 0
KGHS 150245Z 14004KT 03/01 A3016 RMK A01 T00340009  RH  085%=      5-min Rain = 0
KGHS 150250Z 14003KT 04/01 A3016 RMK A01 T00350008  RH  084%=      5-min Rain = 0
KGHS 150255Z 14002KT 04/01 A3016 RMK A01 T00360010  RH  084%=      5-min Rain = 0
KGHS 150300Z 15003KT 04/01 A3016 RMK A01 T00360009  RH  084%=      5-min Rain = 0
KGHS 150305Z 14003KT 04/01 A3016 RMK A01 T00360010  RH  084%=      5-min Rain = 0
KGHS 150310Z 13003KT 04/01 A3016 RMK A01 T00380011  RH  084%=      5-min Rain = 0
KGHS 150315Z 15003KT 04/01 A3016 RMK A01 T00390009  RH  082%=      5-min Rain = 0
KGHS 150320Z 13002KT 04/01 A3016 RMK A01 T00370009  RH  083%=      5-min Rain = 0
KGHS 150325Z 17001KT 04/01 A3016 RMK A01 T00370009  RH  083%=      5-min Rain = 0
KGHS 150330Z 17004G9KT 04/01 A3016 RMK A01 T00390011  RH  083%=      5-min Rain = 0
KGHS 150335Z 17006KT 04/01 A3016 RMK A01 T00420011  RH  081%=      5-min Rain = 0
KGHS 150340Z 17008KT 04/01 A3016 RMK A01 T00440011  RH  081%=      5-min Rain = 0
KGHS 150345Z 17008KT 05/01 A3016 RMK A01 T00450011  RH  079%=      5-min Rain = 0
KGHS 150350Z 18010KT 04/01 A3016 RMK A01 T00440011  RH  080%=      5-min Rain = 0
KGHS 150355Z 18011KT 05/01 A3016 RMK A01 T00470013  RH  080%=      5-min Rain = 0
KGHS 150400Z 17012KT 05/01 A3015 RMK A01 T00490014  RH  080%=      5-min Rain = 0
KGHS 150405Z 17012KT 05/02 A3015 RMK A01 T00490015  RH  079%=      5-min Rain = 0
KGHS 150410Z 17012KT 05/02 A3015 RMK A01 T00490015  RH  080%=      5-min Rain = 0
KGHS 150415Z 17011KT 05/02 A3015 RMK A01 T00520017  RH  079%=      5-min Rain = 0
KGHS 150420Z 17011KT 05/02 A3015 RMK A01 T00530018  RH  079%=      5-min Rain = 0
KGHS 150425Z 17011KT 05/02 A3015 RMK A01 T00540018  RH  079%=      5-min Rain = 0
KGHS 150430Z 17011KT 06/02 A3015 RMK A01 T00550019  RH  079%=      5-min Rain = 0
KGHS 150435Z 17011KT 06/02 A3015 RMK A01 T00570020  RH  078%=      5-min Rain = 0
KGHS 150440Z 18009KT 06/02 A3015 RMK A01 T00570020  RH  078%=      5-min Rain = 0
KGHS 150445Z 18010KT 06/02 A3015 RMK A01 T00570021  RH  079%=      5-min Rain = 0
KGHS 150450Z 18010KT 06/02 A3015 RMK A01 T00600022  RH  078%=      5-min Rain = 0
KGHS 150455Z 17012G18KT 06/02 A3014 RMK A01 T00620023  RH  077%=      5-min Rain = 0
KGHS 150500Z 18011KT 06/02 A3014 RMK A01 T00640023  RH  077%=      5-min Rain = 0
KGHS 150505Z 18012G18KT 06/02 A3014 RMK A01 T00630024  RH  077%=      5-min Rain = 0
KGHS 150510Z 18013KT 07/03 A3014 RMK A01 T00650025  RH  076%=      5-min Rain = 0
KGHS 150515Z 18012KT 07/03 A3014 RMK A01 T00670025  RH  076%=      5-min Rain = 0
KGHS 150520Z 18013G18KT 07/03 A3014 RMK A01 T00680026  RH  076%=      5-min Rain = 0
KGHS 150525Z 18012G17KT 07/03 A3014 RMK A01 T00680026  RH  076%=      5-min Rain = 0
KGHS 150530Z 17013G18KT 07/03 A3014 RMK A01 T00680026  RH  076%=      5-min Rain = 0
KGHS 150535Z 17011G16KT 07/03 A3014 RMK A01 T00680026  RH  075%=      5-min Rain = 0
KGHS 150540Z 17012G18KT 07/03 A3014 RMK A01 T00670026  RH  076%=      5-min Rain = 0
KGHS 150545Z 19012G17KT 07/03 A3014 RMK A01 T00670026  RH  076%=      5-min Rain = 0
KGHS 150550Z 17011G17KT 07/03 A3014 RMK A01 T00670025  RH  076%=      5-min Rain = 0
KGHS 150555Z 17012KT 07/03 A3014 RMK A01 T00660025  RH  076%=      5-min Rain = 0

Page generated in 0.0176 seconds.